Time,TemperatureF,DewpointF,PressureIn,WindDirection,WindDirectionDegrees,WindSpeedMPH,WindSpeedGustMPH,Humidity,HourlyPrecipIn,Conditions,Clouds,dailyrainin,SoftwareType,DateUTC
2013-02-03 00:02:00,36.0,23.0,30.27,West,260,8.0,-999.0,59,-99.99,,,-99.99,,2013-02-03 06:02:00,
2013-02-03 00:11:00,34.0,23.0,30.27,West,270,8.0,-999.0,64,-99.99,,,-99.99,,2013-02-03 06:11:00,
2013-02-03 00:21:00,34.0,23.0,30.27,West,280,9.0,-999.0,64,-99.99,,,-99.99,,2013-02-03 06:21:00,
2013-02-03 00:32:00,36.0,23.0,30.27,West,280,9.0,-999.0,59,-99.99,,,-99.99,,2013-02-03 06:32:00,
2013-02-03 00:41:00,36.0,23.0,30.27,West,280,8.0,-999.0,59,-99.99,,,-99.99,,2013-02-03 06:41:00,
2013-02-03 00:52:00,34.0,23.0,30.27,West,280,9.0,-999.0,64,-99.99,,,-99.99,,2013-02-03 06:52:00,
2013-02-03 01:01:00,34.0,23.0,30.27,West,280,9.0,-999.0,64,-99.99,,,-99.99,,2013-02-03 07:01:00,
2013-02-03 01:11:00,36.0,23.0,30.27,West,280,12.0,-999.0,59,-99.99,,,-99.99,,2013-02-03 07:11:00,
2013-02-03 01:21:00,37.0,23.0,30.27,WNW,290,9.0,-999.0,55,-99.99,,,-99.99,,2013-02-03 07:21:00,
2013-02-03 01:31:00,37.0,23.0,30.27,WNW,300,9.0,-999.0,55,-99.99,,,-99.99,,2013-02-03 07:31:00,
2013-02-03 01:41:00,39.0,23.0,30.27,WNW,300,9.0,-999.0,51,-99.99,,,-99.99,,2013-02-03 07:41:00,
2013-02-03 01:52:00,39.0,23.0,30.27,WNW,300,10.0,-999.0,51,-99.99,,,-99.99,,2013-02-03 07:52:00,
2013-02-03 02:01:00,39.0,23.0,30.27,WNW,300,10.0,-999.0,51,-99.99,,,-99.99,,2013-02-03 08:01:00,
2013-02-03 02:11:00,37.0,23.0,30.27,WNW,290,8.0,-999.0,55,-99.99,,,-99.99,,2013-02-03 08:11:00,
2013-02-03 02:22:00,36.0,21.0,30.27,WNW,300,6.0,-999.0,55,-99.99,,,-99.99,,2013-02-03 08:22:00,
2013-02-03 02:32:00,36.0,21.0,30.27,NW,310,8.0,-999.0,55,-99.99,,,-99.99,,2013-02-03 08:32:00,
2013-02-03 02:41:00,36.0,23.0,30.26,NW,310,8.0,-999.0,59,-99.99,,,-99.99,,2013-02-03 08:41:00,
2013-02-03 02:52:00,36.0,21.0,30.27,WNW,300,7.0,-999.0,55,-99.99,,,-99.99,,2013-02-03 08:52:00,
2013-02-03 03:02:00,36.0,21.0,30.27,WNW,300,7.0,-999.0,55,-99.99,,,-99.99,,2013-02-03 09:02:00,
2013-02-03 03:11:00,34.0,21.0,30.27,WNW,290,5.0,-999.0,59,-99.99,,,-99.99,,2013-02-03 09:11:00,
2013-02-03 03:21:00,32.0,21.0,30.26,WNW,300,5.0,-999.0,63,-99.99,,,-99.99,,2013-02-03 09:21:00,
2013-02-03 03:31:00,32.0,21.0,30.26,WNW,290,5.0,-999.0,63,-99.99,,,-99.99,,2013-02-03 09:31:00,
2013-02-03 03:41:00,32.0,21.0,30.26,West,280,5.0,-999.0,63,-99.99,,,-99.99,,2013-02-03 09:41:00,
2013-02-03 03:51:00,27.0,21.0,30.26,West,270,7.0,-999.0,79,-99.99,,,-99.99,,2013-02-03 09:51:00,
2013-02-03 04:01:00,27.0,21.0,30.26,West,270,7.0,-999.0,79,-99.99,,,-99.99,,2013-02-03 10:01:00,
2013-02-03 04:11:00,28.0,21.0,30.25,West,280,7.0,-999.0,74,-99.99,,,-99.99,,2013-02-03 10:11:00,
2013-02-03 04:21:00,27.0,21.0,30.25,West,280,6.0,-999.0,79,-99.99,,,-99.99,,2013-02-03 10:21:00,
2013-02-03 04:31:00,28.0,21.0,30.25,West,280,6.0,-999.0,74,-99.99,,,-99.99,,2013-02-03 10:31:00,
2013-02-03 04:42:00,28.0,21.0,30.25,WNW,300,6.0,-999.0,74,-99.99,,,-99.99,,2013-02-03 10:42:00,
2013-02-03 04:52:00,27.0,21.0,30.25,North,0,0.0,-999.0,79,-99.99,,,-99.99,,2013-02-03 10:52:00,
2013-02-03 05:02:00,27.0,21.0,30.25,North,0,0.0,-999.0,79,-99.99,,,-99.99,,2013-02-03 11:02:00,
2013-02-03 05:11:00,28.0,21.0,30.26,North,0,0.0,-999.0,74,-99.99,,,-99.99,,2013-02-03 11:11:00,
2013-02-03 05:22:00,25.0,19.0,30.26,West,270,5.0,-999.0,79,-99.99,,,-99.99,,2013-02-03 11:22:00,
2013-02-03 05:32:00,25.0,19.0,30.26,West,260,5.0,-999.0,79,-99.99,,,-99.99,,2013-02-03 11:32:00,
2013-02-03 05:41:00,25.0,19.0,30.26,West,260,5.0,-999.0,79,-99.99,,,-99.99,,2013-02-03 11:41:00,
2013-02-03 05:52:00,25.0,19.0,30.26,North,0,0.0,-999.0,79,-99.99,,,-99.99,,2013-02-03 11:52:00,
2013-02-03 06:02:00,25.0,19.0,30.26,North,0,0.0,-999.0,79,-99.99,,,-99.99,,2013-02-03 12:02:00,
2013-02-03 06:11:00,27.0,21.0,30.26,North,0,0.0,-999.0,79,-99.99,,,-99.99,,2013-02-03 12:11:00,
2013-02-03 06:22:00,27.0,21.0,30.26,North,0,0.0,-999.0,79,-99.99,,,-99.99,,2013-02-03 12:22:00,
2013-02-03 06:32:00,25.0,19.0,30.26,WSW,240,3.0,-999.0,79,-99.99,,,-99.99,,2013-02-03 12:32:00,
2013-02-03 06:42:00,25.0,19.0,30.27,North,0,0.0,-999.0,79,-99.99,,,-99.99,,2013-02-03 12:42:00,
2013-02-03 06:53:00,21.0,19.0,30.26,WSW,250,3.0,-999.0,92,-99.99,,,-99.99,,2013-02-03 12:53:00,
2013-02-03 07:03:00,21.0,19.0,30.26,WSW,250,3.0,-999.0,92,-99.99,,,-99.99,,2013-02-03 13:03:00,
2013-02-03 07:11:00,23.0,19.0,30.27,WSW,250,3.0,-999.0,85,-99.99,,,-99.99,,2013-02-03 13:11:00,
2013-02-03 07:21:00,21.0,19.0,30.27,WSW,240,5.0,-999.0,92,-99.99,,,-99.99,,2013-02-03 13:21:00,
2013-02-03 07:32:00,23.0,19.0,30.27,WSW,250,5.0,-999.0,85,-99.99,,,-99.99,,2013-02-03 13:32:00,
2013-02-03 07:42:00,21.0,19.0,30.27,WSW,240,5.0,-999.0,92,-99.99,,,-99.99,,2013-02-03 13:42:00,
2013-02-03 07:52:00,25.0,19.0,30.27,North,0,0.0,-999.0,79,-99.99,,,-99.99,,2013-02-03 13:52:00,
2013-02-03 08:02:00,25.0,19.0,30.27,North,0,0.0,-999.0,79,-99.99,,,-99.99,,2013-02-03 14:02:00,
2013-02-03 08:11:00,25.0,19.0,30.27,North,0,0.0,-999.0,79,-99.99,,,-99.99,,2013-02-03 14:11:00,
2013-02-03 08:21:00,25.0,21.0,30.27,West,280,3.0,-999.0,85,-99.99,,,-99.99,,2013-02-03 14:21:00,
2013-02-03 08:32:00,27.0,23.0,30.26,North,0,0.0,-999.0,86,-99.99,,,-99.99,,2013-02-03 14:32:00,
2013-02-03 08:42:00,28.0,25.0,30.26,North,0,0.0,-999.0,86,-99.99,,,-99.99,,2013-02-03 14:42:00,
2013-02-03 08:52:00,30.0,27.0,30.25,North,0,0.0,-999.0,86,-99.99,,,-99.99,,2013-02-03 14:52:00,
2013-02-03 09:03:00,30.0,27.0,30.25,North,0,0.0,-999.0,86,-99.99,,,-99.99,,2013-02-03 15:03:00,
2013-02-03 09:11:00,34.0,27.0,30.25,North,0,0.0,-999.0,74,-99.99,,,-99.99,,2013-02-03 15:11:00,
2013-02-03 09:22:00,36.0,27.0,30.25,North,0,0.0,-999.0,69,-99.99,,,-99.99,,2013-02-03 15:22:00,
2013-02-03 09:32:00,37.0,27.0,30.25,ESE,120,5.0,-999.0,64,-99.99,,,-99.99,,2013-02-03 15:32:00,
2013-02-03 09:41:00,39.0,27.0,30.25,ESE,120,5.0,-999.0,60,-99.99,,,-99.99,,2013-02-03 15:41:00,
2013-02-03 09:51:00,39.0,27.0,30.25,SE,130,5.0,-999.0,60,-99.99,,,-99.99,,2013-02-03 15:51:00,
2013-02-03 10:02:00,39.0,27.0,30.25,SE,130,5.0,-999.0,60,-99.99,,,-99.99,,2013-02-03 16:02:00,
2013-02-03 10:11:00,39.0,27.0,30.24,ESE,120,7.0,-999.0,60,-99.99,,,-99.99,,2013-02-03 16:11:00,
2013-02-03 10:22:00,43.0,27.0,30.24,ESE,110,9.0,-999.0,52,-99.99,,,-99.99,,2013-02-03 16:22:00,
2013-02-03 10:32:00,43.0,27.0,30.24,ESE,120,7.0,-999.0,52,-99.99,,,-99.99,,2013-02-03 16:32:00,
2013-02-03 10:41:00,43.0,27.0,30.24,SE,130,9.0,-999.0,52,-99.99,,,-99.99,,2013-02-03 16:41:00,
2013-02-03 10:52:00,43.0,27.0,30.23,ESE,120,10.0,-999.0,52,-99.99,,,-99.99,,2013-02-03 16:52:00,
2013-02-03 11:02:00,43.0,27.0,30.23,ESE,120,10.0,-999.0,52,-99.99,,,-99.99,,2013-02-03 17:02:00,
2013-02-03 11:11:00,45.0,27.0,30.22,SE,130,10.0,-999.0,48,-99.99,,,-99.99,,2013-02-03 17:11:00,
2013-02-03 11:21:00,46.0,25.0,30.22,SE,130,10.0,-999.0,42,-99.99,,,-99.99,,2013-02-03 17:21:00,
2013-02-03 11:31:00,46.0,25.0,30.21,SE,130,10.0,-999.0,42,-99.99,,,-99.99,,2013-02-03 17:31:00,
2013-02-03 11:42:00,48.0,25.0,30.21,SE,140,8.0,-999.0,39,-99.99,,,-99.99,,2013-02-03 17:42:00,
2013-02-03 11:52:00,48.0,25.0,30.20,SE,130,9.0,20.0,39,-99.99,,,-99.99,,2013-02-03 17:52:00,
2013-02-03 12:03:00,48.0,25.0,30.20,SE,130,9.0,20.0,39,-99.99,,,-99.99,,2013-02-03 18:03:00,
2013-02-03 12:11:00,48.0,25.0,30.19,SE,140,14.0,-999.0,39,-99.99,,,-99.99,,2013-02-03 18:11:00,
2013-02-03 12:23:00,50.0,25.0,30.18,SSE,160,16.0,-999.0,37,-99.99,,,-99.99,,2013-02-03 18:23:00,
2013-02-03 12:32:00,50.0,25.0,30.17,SE,140,10.0,16.0,37,-99.99,,,-99.99,,2013-02-03 18:32:00,
2013-02-03 12:41:00,50.0,25.0,30.17,SE,140,10.0,16.0,37,-99.99,,,-99.99,,2013-02-03 18:41:00,
2013-02-03 12:51:00,52.0,25.0,30.16,SE,130,13.0,17.0,34,-99.99,,,-99.99,,2013-02-03 18:51:00,
2013-02-03 13:02:00,52.0,23.0,30.16,SSE,160,15.0,18.0,32,-99.99,,,-99.99,,2013-02-03 19:02:00,
2013-02-03 13:11:00,52.0,23.0,30.14,SSE,150,15.0,-999.0,32,-99.99,,,-99.99,,2013-02-03 19:11:00,
2013-02-03 13:22:00,52.0,23.0,30.13,SSE,150,16.0,21.0,32,-99.99,,,-99.99,,2013-02-03 19:22:00,
2013-02-03 13:32:00,52.0,23.0,30.12,SSE,150,14.0,22.0,32,-99.99,,,-99.99,,2013-02-03 19:32:00,
2013-02-03 13:41:00,54.0,23.0,30.11,SSE,150,16.0,23.0,30,-99.99,,,-99.99,,2013-02-03 19:41:00,
2013-02-03 13:51:00,54.0,23.0,30.10,SSE,160,16.0,22.0,30,-99.99,,,-99.99,,2013-02-03 19:51:00,
2013-02-03 14:01:00,54.0,23.0,30.10,SSE,160,16.0,22.0,30,-99.99,,,-99.99,,2013-02-03 20:01:00,
2013-02-03 14:12:00,54.0,23.0,30.08,SSE,150,15.0,22.0,30,-99.99,,,-99.99,,2013-02-03 20:12:00,
2013-02-03 14:21:00,54.0,23.0,30.07,SSE,150,15.0,23.0,30,-99.99,,,-99.99,,2013-02-03 20:21:00,
2013-02-03 14:32:00,55.0,23.0,30.06,South,170,16.0,24.0,28,-99.99,,,-99.99,,2013-02-03 20:32:00,
2013-02-03 14:42:00,55.0,23.0,30.05,SSE,160,14.0,-999.0,28,-99.99,,,-99.99,,2013-02-03 20:42:00,
2013-02-03 14:52:00,55.0,23.0,30.04,SSE,160,17.0,27.0,28,-99.99,,,-99.99,,2013-02-03 20:52:00,
2013-02-03 15:03:00,55.0,23.0,30.04,SSE,160,17.0,27.0,28,-99.99,,,-99.99,,2013-02-03 21:03:00,
2013-02-03 15:11:00,55.0,23.0,30.04,South,170,16.0,24.0,28,-99.99,,,-99.99,,2013-02-03 21:11:00,
2013-02-03 15:21:00,55.0,25.0,30.03,South,170,18.0,-999.0,30,-99.99,,,-99.99,,2013-02-03 21:21:00,
2013-02-03 15:32:00,55.0,25.0,30.02,SSE,160,14.0,23.0,30,-99.99,,,-99.99,,2013-02-03 21:32:00,
2013-02-03 15:42:00,55.0,25.0,30.02,SSE,150,16.0,23.0,30,-99.99,,,-99.99,,2013-02-03 21:42:00,
2013-02-03 15:51:00,55.0,25.0,30.01,SSE,160,18.0,22.0,30,-99.99,,,-99.99,,2013-02-03 21:51:00,
2013-02-03 16:01:00,55.0,25.0,30.01,SSE,160,18.0,22.0,30,-99.99,,,-99.99,,2013-02-03 22:01:00,
2013-02-03 16:11:00,55.0,25.0,30.00,SSE,160,18.0,24.0,30,-99.99,,,-99.99,,2013-02-03 22:11:00,
2013-02-03 16:21:00,57.0,25.0,29.99,SSE,160,16.0,23.0,28,-99.99,,,-99.99,,2013-02-03 22:21:00,
2013-02-03 16:32:00,55.0,25.0,29.98,SSE,160,17.0,22.0,30,-99.99,,,-99.99,,2013-02-03 22:32:00,
2013-02-03 16:41:00,55.0,25.0,29.98,SSE,160,15.0,-999.0,30,-99.99,,,-99.99,,2013-02-03 22:41:00,
2013-02-03 16:51:00,55.0,27.0,29.97,South,170,17.0,22.0,32,-99.99,,,-99.99,,2013-02-03 22:51:00,
2013-02-03 17:01:00,55.0,27.0,29.97,South,170,17.0,22.0,32,-99.99,,,-99.99,,2013-02-03 23:01:00,
2013-02-03 17:12:00,55.0,27.0,29.96,South,170,20.0,24.0,32,-99.99,,,-99.99,,2013-02-03 23:12:00,
2013-02-03 17:22:00,54.0,27.0,29.95,SSE,160,13.0,20.0,34,-99.99,,,-99.99,,2013-02-03 23:22:00,
2013-02-03 17:32:00,54.0,27.0,29.95,SSE,150,13.0,-999.0,34,-99.99,,,-99.99,,2013-02-03 23:32:00,
2013-02-03 17:41:00,54.0,27.0,29.95,SSE,160,12.0,-999.0,34,-99.99,,,-99.99,,2013-02-03 23:41:00,
2013-02-03 17:52:00,52.0,27.0,29.94,SSE,150,10.0,-999.0,37,-99.99,,,-99.99,,2013-02-03 23:52:00,
2013-02-03 18:01:00,52.0,27.0,29.94,SSE,150,10.0,-999.0,37,-99.99,,,-99.99,,2013-02-04 00:01:00,
2013-02-03 18:11:00,52.0,27.0,29.94,SSE,150,12.0,-999.0,37,-99.99,,,-99.99,,2013-02-04 00:11:00,
2013-02-03 18:22:00,52.0,27.0,29.93,SSE,150,10.0,-999.0,37,-99.99,,,-99.99,,2013-02-04 00:22:00,
2013-02-03 18:31:00,52.0,27.0,29.93,SSE,150,12.0,17.0,37,-99.99,,,-99.99,,2013-02-04 00:31:00,
2013-02-03 18:41:00,52.0,27.0,29.92,SSE,150,10.0,-999.0,37,-99.99,,,-99.99,,2013-02-04 00:41:00,
2013-02-03 18:51:00,50.0,28.0,29.92,SSE,150,12.0,-999.0,43,-99.99,,,-99.99,,2013-02-04 00:51:00,
2013-02-03 19:01:00,50.0,28.0,29.92,SSE,150,12.0,-999.0,43,-99.99,,,-99.99,,2013-02-04 01:01:00,
2013-02-03 19:11:00,50.0,28.0,29.92,SSE,150,12.0,17.0,43,-99.99,,,-99.99,,2013-02-04 01:11:00,
2013-02-03 19:21:00,50.0,28.0,29.91,SSE,150,13.0,-999.0,43,-99.99,,,-99.99,,2013-02-04 01:21:00,
2013-02-03 19:31:00,50.0,28.0,29.91,SSE,160,13.0,-999.0,43,-99.99,,,-99.99,,2013-02-04 01:31:00,
2013-02-03 19:41:00,50.0,28.0,29.91,SSE,160,13.0,-999.0,43,-99.99,,,-99.99,,2013-02-04 01:41:00,
2013-02-03 19:52:00,50.0,28.0,29.90,SSE,160,14.0,21.0,43,-99.99,,,-99.99,,2013-02-04 01:52:00,
2013-02-03 20:02:00,50.0,28.0,29.90,SSE,160,14.0,21.0,43,-99.99,,,-99.99,,2013-02-04 02:02:00,
2013-02-03 20:11:00,50.0,28.0,29.90,SSE,160,16.0,20.0,43,-99.99,,,-99.99,,2013-02-04 02:11:00,
2013-02-03 20:21:00,50.0,28.0,29.89,SSE,160,16.0,22.0,43,-99.99,,,-99.99,,2013-02-04 02:21:00,
2013-02-03 20:31:00,50.0,28.0,29.89,South,170,16.0,21.0,43,-99.99,,,-99.99,,2013-02-04 02:31:00,
2013-02-03 20:41:00,50.0,28.0,29.89,SSE,160,16.0,21.0,43,-99.99,,,-99.99,,2013-02-04 02:41:00,
2013-02-03 20:52:00,50.0,28.0,29.89,SSE,160,16.0,20.0,43,-99.99,,,-99.99,,2013-02-04 02:52:00,
2013-02-03 21:02:00,50.0,28.0,29.89,SSE,160,16.0,20.0,43,-99.99,,,-99.99,,2013-02-04 03:02:00,
2013-02-03 21:11:00,50.0,28.0,29.88,South,170,16.0,21.0,43,-99.99,,,-99.99,,2013-02-04 03:11:00,
2013-02-03 21:21:00,50.0,28.0,29.88,South,170,14.0,20.0,43,-99.99,,,-99.99,,2013-02-04 03:21:00,
2013-02-03 21:32:00,50.0,28.0,29.88,South,170,13.0,18.0,43,-99.99,,,-99.99,,2013-02-04 03:32:00,
2013-02-03 21:41:00,50.0,28.0,29.88,South,170,14.0,-999.0,43,-99.99,,,-99.99,,2013-02-04 03:41:00,
2013-02-03 21:51:00,50.0,28.0,29.87,South,170,15.0,20.0,43,-99.99,,,-99.99,,2013-02-04 03:51:00,
2013-02-03 22:01:00,50.0,28.0,29.87,South,170,15.0,20.0,43,-99.99,,,-99.99,,2013-02-04 04:01:00,
2013-02-03 22:11:00,48.0,28.0,29.87,South,170,12.0,-999.0,46,-99.99,,,-99.99,,2013-02-04 04:11:00,
2013-02-03 22:21:00,48.0,28.0,29.86,South,180,14.0,17.0,46,-99.99,,,-99.99,,2013-02-04 04:21:00,
2013-02-03 22:31:00,48.0,28.0,29.86,South,180,12.0,-999.0,46,-99.99,,,-99.99,,2013-02-04 04:31:00,
2013-02-03 22:41:00,48.0,28.0,29.86,South,180,12.0,-999.0,46,-99.99,,,-99.99,,2013-02-04 04:41:00,
2013-02-03 22:52:00,48.0,28.0,29.85,South,180,13.0,17.0,46,-99.99,,,-99.99,,2013-02-04 04:52:00,
2013-02-03 23:03:00,48.0,28.0,29.85,South,180,13.0,17.0,46,-99.99,,,-99.99,,2013-02-04 05:03:00,
2013-02-03 23:11:00,48.0,30.0,29.84,South,170,12.0,-999.0,49,-99.99,,,-99.99,,2013-02-04 05:11:00,
2013-02-03 23:22:00,48.0,28.0,29.84,South,170,10.0,-999.0,46,-99.99,,,-99.99,,2013-02-04 05:22:00,
2013-02-03 23:33:00,48.0,28.0,29.83,South,180,12.0,-999.0,46,-99.99,,,-99.99,,2013-02-04 05:33:00,
2013-02-03 23:42:00,48.0,30.0,29.83,South,180,10.0,-999.0,49,-99.99,,,-99.99,,2013-02-04 05:42:00,
2013-02-03 23:52:00,48.0,30.0,29.82,South,180,10.0,-999.0,49,-99.99,,,-99.99,,2013-02-04 05:52:00,